Estacao, Brazil
Current Conditions -  °F | °C
As of 11:00 AM on Sunday 23 Nov 2014 (Local Time) from SBCH Reporting Station
Few Clouds Few Clouds  
Wind Chill: 72°   Ceiling: Unl
Heat Index: 72°   Visibility: 6mi
Dew Point: 61°   Wind: 9mph
Humidity: 69%   Direction: 60°ENE
Pressure: 30"   Gusts: NA
Location:  27.91°S, 52.26°W
Report Text: SBCH 231300Z 06008KT 9999 FEW020 22/16 Q1016
Loading
Personal Weather Stations






























Interactive Weather Map New forecast layout! Learn more

10-Day Weather Forecast

Advertisements
Track Severe Weather on mobile